Terminal Aerodrome Forecast
Issued by NWS

Home | Current Version | Previous Version | Text Only | Print | Product List | Glossary On
Versions: 1 2 3 4 5 6 7 8 9 10 11 12 13 14
000
FTUS43 KGLD 162333
TAFMCK
TAF
KMCK 162333Z 1700/1724 04014KT P6SM FEW250
     FM170500 02013KT P6SM SCT030
     FM170700 02012KT P6SM SCT003 BKN008
     FM171300 34008KT P6SM SCT003 OVC010
     FM171800 35007KT P6SM SCT010 BKN020
     FM172200 34005KT P6SM SCT015 BKN045=

USA.gov is the U.S. government's official web portal to all federal, state and local government web resources and services.